Time;durP1;ratioP1;P1;durP2;ratioP2;P2;SDS_P1;SDS_P2;PMS_P1;PMS_P2;Temp;Humidity;BMP_temperature;BMP_pressure;BME280_temperature;BME280_humidity;BME280_pressure;Samples;Min_cycle;Max_cycle;Signal;HPM_P1;HPM_P2
2023/12/26 00:01:47;;;;;;;5.33;5.23;;;12.90;99.90;;;;;;5062758;28;21252;-67
2023/12/26 00:04:13;;;;;;;5.30;5.20;;;12.90;99.90;;;;;;5058956;28;20626;-68
2023/12/26 00:06:43;;;;;;;5.00;4.90;;;12.90;99.90;;;;;;5066166;28;20822;-64
2023/12/26 00:09:11;;;;;;;5.20;5.10;;;12.80;99.90;;;;;;5069391;28;21108;-66
2023/12/26 00:11:44;;;;;;;5.40;5.20;;;12.90;99.90;;;;;;5068195;28;20483;-65
2023/12/26 00:14:11;;;;;;;5.20;5.10;;;12.90;99.90;;;;;;5056268;28;20469;-61
2023/12/26 00:16:39;;;;;;;5.53;5.43;;;12.90;99.90;;;;;;5061775;28;20481;-65
2023/12/26 00:19:05;;;;;;;4.80;4.70;;;12.90;99.90;;;;;;5074442;28;20441;-65
2023/12/26 00:21:31;;;;;;;5.20;5.10;;;12.80;99.90;;;;;;5056724;28;21240;-65
2023/12/26 00:23:57;;;;;;;5.17;5.07;;;12.80;99.90;;;;;;5063349;28;20183;-60
2023/12/26 00:26:22;;;;;;;5.27;5.17;;;12.80;99.90;;;;;;5066251;28;20212;-64
2023/12/26 00:28:48;;;;;;;5.37;5.27;;;12.80;99.90;;;;;;5067001;28;20433;-67
2023/12/26 00:31:14;;;;;;;6.00;5.80;;;12.80;99.90;;;;;;5058910;28;20728;-64
2023/12/26 00:33:40;;;;;;;5.40;5.30;;;12.80;99.90;;;;;;5054171;28;20187;-65
2023/12/26 00:36:11;;;;;;;5.30;5.20;;;12.80;99.90;;;;;;5069501;28;20192;-67
2023/12/26 00:38:37;;;;;;;5.10;5.00;;;12.70;99.90;;;;;;5066150;28;20603;-65
2023/12/26 00:41:04;;;;;;;5.20;5.10;;;12.60;99.90;;;;;;5065749;28;20461;-65
2023/12/26 00:43:30;;;;;;;5.20;5.10;;;12.70;99.90;;;;;;5070773;28;20171;-65
2023/12/26 00:45:56;;;;;;;4.80;4.70;;;12.70;99.90;;;;;;5064507;28;20481;-60
2023/12/26 00:48:22;;;;;;;5.40;5.20;;;12.70;99.90;;;;;;5068139;28;20208;-71
2023/12/26 00:50:48;;;;;;;4.90;4.80;;;12.70;99.90;;;;;;5062459;28;20913;-68
2023/12/26 00:53:13;;;;;;;5.30;5.10;;;12.60;99.90;;;;;;5067091;28;20169;-66
2023/12/26 00:55:39;;;;;;;5.17;4.97;;;12.70;99.90;;;;;;5064259;28;20185;-67
2023/12/26 00:58:05;;;;;;;5.07;4.97;;;12.70;99.90;;;;;;5065474;28;20927;-66
2023/12/26 01:00:31;;;;;;;4.90;4.80;;;12.70;99.90;;;;;;5064975;28;20724;-69
2023/12/26 01:02:56;;;;;;;5.00;4.90;;;12.70;99.90;;;;;;5063069;28;20191;-63
2023/12/26 01:05:23;;;;;;;5.00;4.90;;;12.60;99.90;;;;;;5065734;28;20197;-70
2023/12/26 01:07:49;;;;;;;4.87;4.77;;;12.60;99.90;;;;;;5066507;28;20745;-70
2023/12/26 01:10:15;;;;;;;5.10;5.00;;;12.60;99.90;;;;;;5066300;28;20441;-68
2023/12/26 01:12:41;;;;;;;5.17;5.07;;;12.60;99.90;;;;;;5059605;28;20423;-64
2023/12/26 01:15:07;;;;;;;4.83;4.73;;;12.60;99.90;;;;;;5064080;28;20488;-67
2023/12/26 01:17:32;;;;;;;4.80;4.60;;;12.60;99.90;;;;;;5065449;28;20206;-66
2023/12/26 01:19:58;;;;;;;5.00;4.90;;;12.60;99.90;;;;;;5065285;28;20517;-62
2023/12/26 01:22:24;;;;;;;4.90;4.80;;;12.70;99.90;;;;;;5060976;28;20246;-67
2023/12/26 01:24:52;;;;;;;5.00;4.90;;;12.70;99.90;;;;;;5065142;28;20189;-66
2023/12/26 01:27:18;;;;;;;4.90;4.80;;;12.80;99.90;;;;;;5068107;28;20748;-67
2023/12/26 01:29:44;;;;;;;4.80;4.70;;;12.70;99.90;;;;;;5054532;28;20428;-68
2023/12/26 01:32:09;;;;;;;5.00;4.90;;;12.70;99.90;;;;;;5059253;28;20183;-68
2023/12/26 01:34:35;;;;;;;4.57;4.47;;;12.80;99.90;;;;;;5066174;28;20177;-65
2023/12/26 01:37:01;;;;;;;4.70;4.60;;;12.80;99.90;;;;;;5066044;28;20540;-61
2023/12/26 01:39:28;;;;;;;4.70;4.60;;;12.70;99.90;;;;;;5068715;28;20186;-66
2023/12/26 01:41:54;;;;;;;4.73;4.63;;;12.70;99.90;;;;;;5063338;28;20510;-67
2023/12/26 01:44:20;;;;;;;4.90;4.80;;;12.70;99.90;;;;;;5066949;28;20483;-67
2023/12/26 01:46:46;;;;;;;5.10;4.80;;;12.70;99.90;;;;;;5061592;28;20497;-67
2023/12/26 01:49:13;;;;;;;4.60;4.50;;;12.70;99.90;;;;;;5064661;28;20446;-65
2023/12/26 01:51:42;;;;;;;4.60;4.50;;;12.70;99.90;;;;;;5062728;28;20465;-66
2023/12/26 01:54:08;;;;;;;4.90;4.80;;;12.70;99.90;;;;;;5063860;28;20413;-69
2023/12/26 01:56:35;;;;;;;5.20;5.00;;;12.70;99.90;;;;;;5064071;28;20942;-70
2023/12/26 01:59:02;;;;;;;5.10;5.00;;;12.60;99.90;;;;;;5064847;28;20425;-61
2023/12/26 02:01:29;;;;;;;4.90;4.80;;;12.60;99.90;;;;;;5064091;28;20849;-64
2023/12/26 02:03:58;;;;;;;5.33;5.03;;;12.60;99.90;;;;;;5064664;28;20905;-70
2023/12/26 02:06:23;;;;;;;4.90;4.80;;;12.60;99.90;;;;;;5066045;28;20481;-69
2023/12/26 02:08:50;;;;;;;4.83;4.73;;;12.60;99.90;;;;;;5064132;28;20441;-69
2023/12/26 02:11:15;;;;;;;4.80;4.70;;;12.60;99.90;;;;;;5066802;28;20214;-72
2023/12/26 02:13:42;;;;;;;4.73;4.63;;;12.50;99.90;;;;;;5064911;28;20838;-65
2023/12/26 02:16:15;;;;;;;4.40;4.30;;;12.50;99.90;;;;;;5061506;28;20691;-70
2023/12/26 02:18:42;;;;;;;4.50;4.40;;;12.50;99.90;;;;;;5066915;28;20417;-66
2023/12/26 02:21:08;;;;;;;4.20;4.10;;;12.50;99.90;;;;;;5061496;28;20427;-70
2023/12/26 02:23:35;;;;;;;4.30;4.20;;;12.50;99.90;;;;;;5065588;28;20432;-67
2023/12/26 02:26:03;;;;;;;4.10;4.00;;;12.50;99.90;;;;;;5063523;28;21540;-62
2023/12/26 02:28:30;;;;;;;4.30;4.20;;;12.50;99.90;;;;;;5066686;28;20429;-67
2023/12/26 02:30:57;;;;;;;4.10;4.00;;;12.50;99.90;;;;;;5061983;28;20901;-68
2023/12/26 02:33:23;;;;;;;4.13;4.03;;;12.50;99.90;;;;;;5062978;28;20422;-64
2023/12/26 02:35:49;;;;;;;4.10;3.90;;;12.50;99.90;;;;;;5061033;28;20438;-68
2023/12/26 02:38:15;;;;;;;4.30;4.20;;;12.50;99.90;;;;;;5065342;28;20422;-66
2023/12/26 02:40:40;;;;;;;4.30;4.20;;;12.50;99.90;;;;;;5064256;28;20964;-65
2023/12/26 02:43:06;;;;;;;4.40;4.30;;;12.50;99.90;;;;;;5064163;28;20439;-67
2023/12/26 02:45:32;;;;;;;4.20;4.10;;;12.40;99.90;;;;;;5063237;28;20291;-65
2023/12/26 02:47:58;;;;;;;4.07;3.97;;;12.50;99.90;;;;;;5065975;28;20213;-68
2023/12/26 02:50:23;;;;;;;4.00;3.90;;;12.40;99.90;;;;;;5064430;28;20191;-69
2023/12/26 02:52:49;;;;;;;4.30;4.17;;;12.40;99.90;;;;;;5061880;28;20216;-67
2023/12/26 02:55:15;;;;;;;4.10;3.93;;;12.40;99.90;;;;;;5064636;28;20248;-66
2023/12/26 02:57:41;;;;;;;3.87;3.87;;;12.40;99.90;;;;;;5063076;28;20194;-65
2023/12/26 03:00:07;;;;;;;4.40;4.30;;;12.30;99.90;;;;;;5063760;28;20423;-67
2023/12/26 03:02:34;;;;;;;4.80;4.40;;;12.30;99.90;;;;;;5065795;28;20213;-67
2023/12/26 03:04:59;;;;;;;4.53;4.43;;;12.30;99.90;;;;;;5063376;28;20425;-62
2023/12/26 03:07:25;;;;;;;4.37;4.27;;;12.30;99.90;;;;;;5057171;28;20432;-67
2023/12/26 03:09:52;;;;;;;4.43;4.33;;;12.30;99.90;;;;;;5066920;28;20244;-68
2023/12/26 03:12:18;;;;;;;4.43;4.33;;;12.30;99.90;;;;;;5087970;28;20697;-68
2023/12/26 03:14:44;;;;;;;4.60;4.50;;;12.30;99.90;;;;;;5062763;28;20481;-67
2023/12/26 03:17:10;;;;;;;4.70;4.60;;;12.40;99.90;;;;;;5062963;28;20577;-67
2023/12/26 03:19:35;;;;;;;4.60;4.50;;;12.40;99.90;;;;;;5069768;28;20648;-64
2023/12/26 03:22:01;;;;;;;4.70;4.60;;;12.40;99.90;;;;;;5063535;28;20672;-61
2023/12/26 03:24:27;;;;;;;4.50;4.40;;;12.40;99.90;;;;;;5068758;28;20187;-67
2023/12/26 03:26:53;;;;;;;4.30;4.20;;;12.40;99.90;;;;;;5065521;28;20479;-67
2023/12/26 03:29:18;;;;;;;4.50;4.40;;;12.40;99.90;;;;;;5066073;28;20188;-66
2023/12/26 03:31:45;;;;;;;4.03;3.93;;;12.40;99.90;;;;;;5068123;28;20187;-70
2023/12/26 03:34:12;;;;;;;4.40;4.30;;;12.40;99.90;;;;;;5033497;28;20187;-66
2023/12/26 03:36:48;;;;;;;4.20;4.10;;;12.40;99.90;;;;;;5067507;28;20433;-67
2023/12/26 03:39:14;;;;;;;4.30;4.20;;;12.30;99.90;;;;;;5060944;28;20453;-70
2023/12/26 03:41:40;;;;;;;4.10;4.00;;;12.20;99.90;;;;;;5069470;28;20432;-68
2023/12/26 03:44:06;;;;;;;4.33;4.23;;;12.20;99.90;;;;;;5064062;28;20460;-67
2023/12/26 03:46:32;;;;;;;4.30;4.20;;;12.20;99.90;;;;;;5063228;28;20477;-69
2023/12/26 03:48:58;;;;;;;4.37;4.27;;;12.20;99.90;;;;;;5069175;28;20246;-70
2023/12/26 03:51:24;;;;;;;4.30;4.20;;;12.20;99.90;;;;;;5068524;28;20422;-66
2023/12/26 03:53:50;;;;;;;4.20;4.10;;;12.20;99.90;;;;;;5060600;28;20204;-69
2023/12/26 03:56:16;;;;;;;4.90;4.70;;;12.20;99.90;;;;;;5092538;28;20443;-64
2023/12/26 03:58:42;;;;;;;4.50;4.40;;;12.20;99.90;;;;;;5063712;28;20446;-67
2023/12/26 04:01:08;;;;;;;4.30;4.20;;;12.20;99.90;;;;;;5073792;28;20426;-64
2023/12/26 04:03:33;;;;;;;4.30;4.20;;;12.20;99.90;;;;;;5066606;28;20187;-67
2023/12/26 04:05:59;;;;;;;4.20;4.10;;;12.20;99.90;;;;;;5069784;28;20249;-61
2023/12/26 04:08:26;;;;;;;4.90;4.80;;;12.30;99.90;;;;;;5064785;28;20186;-69
2023/12/26 04:10:52;;;;;;;4.27;4.17;;;12.30;99.90;;;;;;5068551;28;20174;-67
2023/12/26 04:13:18;;;;;;;4.40;4.23;;;12.30;99.90;;;;;;5063678;28;20479;-68
2023/12/26 04:15:44;;;;;;;4.07;3.97;;;12.30;99.90;;;;;;5066916;28;20470;-68
2023/12/26 04:18:10;;;;;;;4.23;4.13;;;12.30;99.90;;;;;;5064682;28;20266;-66
2023/12/26 04:20:35;;;;;;;4.20;4.10;;;12.30;99.90;;;;;;5059184;28;21033;-67
2023/12/26 04:23:01;;;;;;;4.17;4.07;;;12.30;99.90;;;;;;5069604;28;20183;-62
2023/12/26 04:25:27;;;;;;;4.10;4.00;;;12.40;99.90;;;;;;5075437;28;20212;-67
2023/12/26 04:27:54;;;;;;;3.97;3.90;;;12.40;99.90;;;;;;5065998;28;20225;-66
2023/12/26 04:30:20;;;;;;;4.20;4.10;;;12.40;99.90;;;;;;5062925;28;20257;-68
2023/12/26 04:32:45;;;;;;;4.10;4.00;;;12.30;99.90;;;;;;5064063;28;20602;-67
2023/12/26 04:35:11;;;;;;;3.80;3.80;;;12.30;99.90;;;;;;5066274;28;20181;-67
2023/12/26 04:37:37;;;;;;;3.90;3.80;;;12.30;99.90;;;;;;5065043;28;20183;-64
2023/12/26 04:40:03;;;;;;;3.80;3.70;;;12.30;99.90;;;;;;5065809;28;20932;-61
2023/12/26 04:42:29;;;;;;;4.23;4.13;;;12.30;99.90;;;;;;5069219;28;20176;-67
2023/12/26 04:44:55;;;;;;;4.17;4.07;;;12.30;99.90;;;;;;5060840;28;20437;-67
2023/12/26 04:47:21;;;;;;;4.10;4.00;;;12.30;99.90;;;;;;5067816;28;20815;-68
2023/12/26 04:49:47;;;;;;;3.90;3.90;;;12.30;99.90;;;;;;5067756;28;20180;-68
2023/12/26 04:52:12;;;;;;;3.90;3.90;;;12.30;99.90;;;;;;5061688;28;20182;-68
2023/12/26 04:54:39;;;;;;;4.10;4.00;;;12.30;99.90;;;;;;5069482;28;20195;-68
2023/12/26 04:57:04;;;;;;;4.10;4.00;;;12.30;99.90;;;;;;5072800;28;20210;-61
2023/12/26 04:59:30;;;;;;;4.30;4.20;;;12.40;99.90;;;;;;5069626;28;20461;-68
2023/12/26 05:01:56;;;;;;;4.93;4.53;;;12.40;99.90;;;;;;5067356;28;20630;-68
2023/12/26 05:04:22;;;;;;;4.77;4.50;;;12.40;99.90;;;;;;5071661;28;20240;-65
2023/12/26 05:06:48;;;;;;;4.50;4.40;;;12.30;99.90;;;;;;5072466;28;20616;-68
2023/12/26 05:09:16;;;;;;;4.63;4.53;;;12.40;99.90;;;;;;5067250;28;20818;-68
2023/12/26 05:11:41;;;;;;;4.37;4.27;;;12.30;99.90;;;;;;5070501;28;20765;-68
2023/12/26 05:14:07;;;;;;;4.70;4.60;;;12.20;99.90;;;;;;5066258;28;20455;-68
2023/12/26 05:16:40;;;;;;;4.60;4.50;;;12.30;99.90;;;;;;5073646;28;20247;-68
2023/12/26 05:19:05;;;;;;;4.70;4.60;;;12.30;99.90;;;;;;5069419;28;20178;-61
2023/12/26 05:21:31;;;;;;;4.53;4.40;;;12.30;99.90;;;;;;5064618;28;20481;-68
2023/12/26 05:23:57;;;;;;;4.60;4.50;;;12.10;99.90;;;;;;5076118;28;20623;-68
2023/12/26 05:26:23;;;;;;;4.53;4.43;;;12.10;99.90;;;;;;5063034;28;20435;-69
2023/12/26 05:28:48;;;;;;;4.10;3.90;;;12.10;99.90;;;;;;5067425;28;20609;-69
2023/12/26 05:31:19;;;;;;;4.10;4.00;;;12.10;99.90;;;;;;5066579;28;20175;-68
2023/12/26 05:33:45;;;;;;;4.23;4.10;;;12.10;99.90;;;;;;5075783;28;20176;-68
2023/12/26 05:36:11;;;;;;;3.60;3.60;;;12.10;99.90;;;;;;5065922;28;20439;-68
2023/12/26 05:38:39;;;;;;;3.93;3.83;;;12.10;99.90;;;;;;5061631;28;20185;-66
2023/12/26 05:41:05;;;;;;;3.80;3.70;;;12.10;99.90;;;;;;5070269;28;20191;-62
2023/12/26 05:43:31;;;;;;;3.80;3.70;;;12.20;99.90;;;;;;5064191;28;20854;-68
2023/12/26 05:46:01;;;;;;;3.90;3.80;;;12.20;99.90;;;;;;5064445;28;20817;-68
2023/12/26 05:48:27;;;;;;;3.80;3.60;;;12.20;99.90;;;;;;5064031;28;20448;-68
2023/12/26 05:50:52;;;;;;;4.13;3.93;;;12.10;99.90;;;;;;5069668;28;20428;-69
2023/12/26 05:53:18;;;;;;;3.97;3.83;;;12.10;99.90;;;;;;5064655;28;20169;-68
2023/12/26 05:55:44;;;;;;;4.00;3.90;;;12.10;99.90;;;;;;5074250;28;20524;-68
2023/12/26 05:58:10;;;;;;;3.80;3.70;;;12.10;99.90;;;;;;5071231;28;20175;-68
2023/12/26 06:00:36;;;;;;;4.63;3.80;;;12.00;99.90;;;;;;5065564;28;20178;-68
2023/12/26 06:03:02;;;;;;;4.30;4.10;;;12.00;99.90;;;;;;5072902;28;20222;-68
2023/12/26 06:05:27;;;;;;;4.57;4.23;;;11.90;99.90;;;;;;5066362;28;20466;-67
2023/12/26 06:07:53;;;;;;;4.30;4.10;;;11.90;99.90;;;;;;5071224;28;20419;-68
2023/12/26 06:10:19;;;;;;;4.70;4.50;;;11.90;99.90;;;;;;5062655;28;20177;-67
2023/12/26 06:12:45;;;;;;;4.10;4.00;;;11.90;99.90;;;;;;5070629;28;20176;-67
2023/12/26 06:15:11;;;;;;;5.00;4.70;;;11.90;99.90;;;;;;5064776;28;20275;-61
2023/12/26 06:17:36;;;;;;;4.33;4.23;;;11.90;99.90;;;;;;5058715;28;20259;-68
2023/12/26 06:20:03;;;;;;;4.70;4.50;;;12.00;99.90;;;;;;5068529;28;20175;-68
2023/12/26 06:22:29;;;;;;;4.73;4.53;;;12.00;99.90;;;;;;5067916;28;20189;-68
2023/12/26 06:24:54;;;;;;;5.10;4.80;;;12.00;99.90;;;;;;5067388;28;20427;-68
2023/12/26 06:27:20;;;;;;;5.13;4.93;;;11.90;99.90;;;;;;5064977;28;20192;-65
2023/12/26 06:29:46;;;;;;;5.00;4.80;;;11.90;99.90;;;;;;5075358;28;20648;-68
2023/12/26 06:32:12;;;;;;;4.67;4.57;;;11.90;99.90;;;;;;5061291;28;20176;-68
2023/12/26 06:34:37;;;;;;;5.00;4.80;;;12.00;99.90;;;;;;5069952;28;20202;-70
2023/12/26 06:37:04;;;;;;;4.63;4.30;;;12.00;99.90;;;;;;5066396;28;20194;-70
2023/12/26 06:39:31;;;;;;;4.37;4.17;;;12.00;99.90;;;;;;5070073;28;20191;-68
2023/12/26 06:41:56;;;;;;;4.50;4.30;;;12.00;99.90;;;;;;5064842;28;20746;-70
2023/12/26 06:44:22;;;;;;;6.47;6.07;;;12.00;99.90;;;;;;5066987;28;20428;-67
2023/12/26 06:46:48;;;;;;;4.13;3.80;;;11.90;99.90;;;;;;5065730;28;20223;-75
2023/12/26 06:49:17;;;;;;;5.33;4.80;;;11.90;99.90;;;;;;5067554;28;20181;-75
2023/12/26 06:51:43;;;;;;;4.53;4.30;;;11.90;99.90;;;;;;5070175;28;20180;-71
2023/12/26 06:54:09;;;;;;;5.00;4.47;;;11.90;99.90;;;;;;5065526;28;20433;-65
2023/12/26 06:56:34;;;;;;;4.03;3.83;;;11.90;99.90;;;;;;5066390;28;20185;-70
2023/12/26 06:59:00;;;;;;;4.20;4.00;;;11.90;99.90;;;;;;5073270;28;20181;-68
2023/12/26 07:01:26;;;;;;;4.40;4.20;;;11.90;99.90;;;;;;5068607;28;20434;-72
2023/12/26 07:03:52;;;;;;;5.37;4.47;;;12.00;99.90;;;;;;5075005;28;20464;-73
2023/12/26 07:06:18;;;;;;;4.43;4.13;;;12.00;99.90;;;;;;5068643;28;20455;-69
2023/12/26 07:08:44;;;;;;;5.07;4.67;;;11.90;99.90;;;;;;5080982;28;20184;-67
2023/12/26 07:11:10;;;;;;;4.73;4.40;;;11.90;99.90;;;;;;5068822;28;20423;-59
2023/12/26 07:13:36;;;;;;;5.57;4.53;;;11.90;99.90;;;;;;5071984;28;20426;-74
2023/12/26 07:16:02;;;;;;;4.70;4.30;;;11.90;99.90;;;;;;5071118;28;20231;-68
2023/12/26 07:18:27;;;;;;;4.30;4.10;;;12.00;99.90;;;;;;5063723;28;20683;-67
2023/12/26 07:20:53;;;;;;;4.53;4.20;;;12.00;99.90;;;;;;5074374;28;20530;-67
2023/12/26 07:23:19;;;;;;;5.57;5.13;;;12.00;99.90;;;;;;5058814;28;20182;-67
2023/12/26 07:25:45;;;;;;;7.57;5.33;;;12.00;99.90;;;;;;5072767;28;20213;-68
2023/12/26 07:28:14;;;;;;;4.63;4.30;;;12.00;99.90;;;;;;5070298;28;20686;-61
2023/12/26 07:30:40;;;;;;;4.93;4.60;;;11.90;99.90;;;;;;5068969;28;20277;-67
2023/12/26 07:33:06;;;;;;;4.67;4.40;;;12.00;99.90;;;;;;5073964;28;20414;-67
2023/12/26 07:35:37;;;;;;;5.23;4.93;;;12.10;99.90;;;;;;5071705;28;20993;-77
2023/12/26 07:38:04;;;;;;;4.93;4.63;;;12.10;99.90;;;;;;5073630;28;20165;-75
2023/12/26 07:40:31;;;;;;;4.87;4.47;;;12.10;99.90;;;;;;5069180;28;20995;-72
2023/12/26 07:42:59;;;;;;;5.00;4.60;;;12.10;99.90;;;;;;5070956;28;20429;-73
2023/12/26 07:45:26;;;;;;;5.23;4.83;;;12.20;99.90;;;;;;5069233;28;20455;-71
2023/12/26 07:47:52;;;;;;;5.20;4.90;;;12.20;99.90;;;;;;5072348;28;20426;-74
2023/12/26 07:50:18;;;;;;;5.50;5.00;;;12.20;99.90;;;;;;5073036;28;20498;-75
2023/12/26 07:52:44;;;;;;;5.87;5.37;;;12.20;99.90;;;;;;5073080;28;20495;-72
2023/12/26 07:55:11;;;;;;;5.40;5.07;;;12.20;99.90;;;;;;5065351;28;20438;-64
2023/12/26 07:57:37;;;;;;;5.93;5.30;;;12.20;99.90;;;;;;5070015;28;20440;-72
2023/12/26 08:00:03;;;;;;;5.80;5.50;;;12.20;99.90;;;;;;5072216;28;20489;-72
2023/12/26 08:02:29;;;;;;;5.80;5.40;;;12.20;99.90;;;;;;5073383;28;20949;-72
2023/12/26 08:04:55;;;;;;;6.30;5.80;;;12.20;99.90;;;;;;5075623;28;20427;-72
2023/12/26 08:07:21;;;;;;;5.67;5.27;;;12.10;99.90;;;;;;5072311;28;20238;-71
2023/12/26 08:09:46;;;;;;;4.80;4.60;;;12.10;99.90;;;;;;5072949;28;20184;-72
2023/12/26 08:12:12;;;;;;;5.40;5.00;;;12.10;99.90;;;;;;5066469;28;20230;-64
2023/12/26 08:14:38;;;;;;;4.97;4.67;;;12.10;99.90;;;;;;5079211;28;20253;-72
2023/12/26 08:17:04;;;;;;;5.27;4.87;;;12.10;99.90;;;;;;5069778;28;20428;-67
2023/12/26 08:19:31;;;;;;;5.80;5.30;;;12.10;99.90;;;;;;5073432;28;20198;-66
2023/12/26 08:21:57;;;;;;;5.63;5.20;;;12.10;99.90;;;;;;5072185;28;20285;-76
2023/12/26 08:24:22;;;;;;;5.43;4.90;;;12.10;99.90;;;;;;5075359;28;20922;-73
2023/12/26 08:26:57;;;;;;;4.63;4.33;;;12.00;99.90;;;;;;5066006;28;20222;-70
2023/12/26 08:29:23;;;;;;;4.57;4.30;;;12.00;99.90;;;;;;5069224;28;20177;-71
2023/12/26 08:31:49;;;;;;;5.60;4.10;;;12.00;99.90;;;;;;5072047;28;20782;-67
2023/12/26 08:34:15;;;;;;;4.80;4.50;;;11.90;99.90;;;;;;5067062;28;20424;-61
2023/12/26 08:36:41;;;;;;;4.07;3.87;;;11.90;99.90;;;;;;5070550;28;22190;-63
2023/12/26 08:39:06;;;;;;;4.27;4.03;;;11.90;99.90;;;;;;5060037;28;20178;-68
2023/12/26 08:41:32;;;;;;;4.00;3.80;;;11.90;99.90;;;;;;5071271;28;20534;-64
2023/12/26 08:43:58;;;;;;;7.70;6.07;;;12.40;99.90;;;;;;5068183;28;20181;-61
2023/12/26 08:46:24;;;;;;;7.50;7.20;;;13.10;99.90;;;;;;5069086;28;20472;-63
2023/12/26 08:48:50;;;;;;;8.60;8.10;;;;;;;;;;5078097;28;20579;-64
2023/12/26 08:51:16;;;;;;;8.73;8.13;;;;;;;;;;5062038;28;20279;-61
2023/12/26 08:53:42;;;;;;;7.93;7.40;;;;;;;;;;5069002;28;20544;-61
2023/12/26 08:56:08;;;;;;;8.87;8.27;;;;;;;;;;5068693;28;20411;-63
2023/12/26 08:58:35;;;;;;;7.30;6.97;;;15.00;99.90;;;;;;5067958;28;20624;-63
2023/12/26 09:01:01;;;;;;;6.77;6.20;;;;;;;;;;5068799;28;20428;-63
2023/12/26 09:03:28;;;;;;;8.47;6.20;;;14.90;99.90;;;;;;5061911;28;20417;-64
2023/12/26 09:05:54;;;;;;;6.00;5.00;;;14.80;99.90;;;;;;5069984;28;20458;-64
2023/12/26 09:08:21;;;;;;;5.27;4.83;;;;;;;;;;5064261;28;20420;-61
2023/12/26 09:10:47;;;;;;;6.10;5.50;;;;;;;;;;5060797;28;20416;-64
2023/12/26 09:13:15;;;;;;;6.47;5.87;;;15.30;99.90;;;;;;5066331;28;20446;-63
2023/12/26 09:15:41;;;;;;;5.83;5.50;;;;;;;;;;5062595;28;20474;-64
2023/12/26 09:18:08;;;;;;;5.97;5.43;;;;;;;;;;5075299;28;20839;-66
2023/12/26 09:20:34;;;;;;;5.53;4.97;;;;;;;;;;5067139;28;20430;-66
2023/12/26 09:23:00;;;;;;;5.87;5.23;;;;;;;;;;5075040;28;20881;-65
2023/12/26 09:25:26;;;;;;;5.80;5.30;;;;;;;;;;5066789;28;20463;-65
2023/12/26 09:27:52;;;;;;;6.03;4.70;;;;;;;;;;5067988;28;20515;-65
2023/12/26 09:30:19;;;;;;;5.03;4.70;;;;;;;;;;5058614;28;20945;-61
2023/12/26 09:32:45;;;;;;;4.87;4.57;;;16.20;99.90;;;;;;5062618;28;20479;-63
2023/12/26 09:35:11;;;;;;;6.00;5.50;;;;;;;;;;5072449;28;20782;-64
2023/12/26 09:37:38;;;;;;;4.87;4.50;;;16.00;99.90;;;;;;5065457;28;20428;-64
2023/12/26 09:40:08;;;;;;;4.93;4.53;;;15.80;99.90;;;;;;5067163;28;20505;-64
2023/12/26 09:42:34;;;;;;;4.60;4.30;;;;;;;;;;5068288;28;20541;-65
2023/12/26 09:45:02;;;;;;;4.57;4.17;;;;;;;;;;5069862;28;20487;-66
2023/12/26 09:47:30;;;;;;;4.23;3.93;;;15.10;99.90;;;;;;5066599;28;20434;-67
2023/12/26 09:49:56;;;;;;;4.47;4.10;;;15.10;99.90;;;;;;5066556;28;20418;-67
2023/12/26 09:52:22;;;;;;;4.40;4.10;;;14.70;99.90;;;;;;5069375;28;20416;-64
2023/12/26 09:54:52;;;;;;;4.00;3.67;;;14.10;99.90;;;;;;5069386;28;20781;-64
2023/12/26 09:57:19;;;;;;;4.60;3.70;;;14.10;99.90;;;;;;5073183;28;20927;-62
2023/12/26 09:59:47;;;;;;;5.60;3.50;;;13.90;99.90;;;;;;5068278;28;20966;-63
2023/12/26 10:02:13;;;;;;;22.27;15.87;;;13.40;99.90;;;;;;5068971;28;20430;-63
2023/12/26 10:04:39;;;;;;;31.17;19.50;;;13.40;99.90;;;;;;5067491;28;20415;-63
2023/12/26 10:07:06;;;;;;;151.67;103.90;;;;;;;;;;5070021;28;20211;-62
2023/12/26 10:09:32;;;;;;;85.70;52.67;;;13.30;99.90;;;;;;5063426;28;20964;-64
2023/12/26 10:11:58;;;;;;;9.00;5.67;;;;;;;;;;5070857;28;20480;-61
2023/12/26 10:14:30;;;;;;;4.50;4.10;;;13.10;99.90;;;;;;5068119;28;20786;-66
2023/12/26 10:16:57;;;;;;;4.00;3.80;;;13.00;99.90;;;;;;5066539;28;20430;-66
2023/12/26 10:19:23;;;;;;;4.67;4.37;;;12.60;99.90;;;;;;5067707;28;20502;-65
2023/12/26 10:21:50;;;;;;;5.10;4.70;;;12.50;99.90;;;;;;5066004;28;20417;-65
2023/12/26 10:24:20;;;;;;;6.83;4.90;;;12.60;99.90;;;;;;5071703;28;20412;-65
2023/12/26 10:26:49;;;;;;;4.80;4.33;;;12.50;99.90;;;;;;5069404;28;20467;-66
2023/12/26 10:29:15;;;;;;;5.63;4.40;;;12.40;99.90;;;;;;5070446;28;20928;-73
2023/12/26 10:31:42;;;;;;;4.40;4.10;;;12.30;99.90;;;;;;5069194;28;20434;-66
2023/12/26 10:34:17;;;;;;;4.77;4.50;;;12.20;99.90;;;;;;5077151;28;20471;-66
2023/12/26 10:36:47;;;;;;;4.67;4.30;;;12.00;99.90;;;;;;5067581;28;20444;-66
2023/12/26 10:39:13;;;;;;;5.13;4.70;;;11.90;99.90;;;;;;5073899;28;20423;-66
2023/12/26 10:41:47;;;;;;;9.87;5.43;;;11.80;99.90;;;;;;5072149;28;20944;-63
2023/12/26 10:44:17;;;;;;;5.27;4.87;;;11.70;99.90;;;;;;5068552;28;20482;-63
2023/12/26 10:46:45;;;;;;;5.67;5.10;;;11.60;99.90;;;;;;5066498;28;20551;-65
2023/12/26 10:49:17;;;;;;;5.60;4.50;;;11.60;99.90;;;;;;5073139;28;20870;-66
2023/12/26 10:51:43;;;;;;;5.57;4.40;;;11.70;99.90;;;;;;5074406;28;20426;-67
2023/12/26 10:54:24;;;;;;;7.37;4.40;;;11.60;99.90;;;;;;5072957;28;20992;-65
2023/12/26 10:56:51;;;;;;;597.13;353.73;;;11.60;99.90;;;;;;5066325;28;20220;-66
2023/12/26 13:51:34;;;;;;;5.27;4.77;;;12.00;99.90;;;;;;5073680;28;20431;-65
2023/12/26 13:54:37;;;;;;;10.00;5.20;;;12.00;99.90;;;;;;5070818;28;20418;-65
2023/12/26 13:57:41;;;;;;;6.83;5.27;;;12.00;99.90;;;;;;5064915;28;20529;-65
2023/12/26 14:00:44;;;;;;;5.40;4.90;;;11.90;99.90;;;;;;5070113;28;20413;-65
2023/12/26 14:03:50;;;;;;;5.27;4.80;;;11.90;99.90;;;;;;5069988;28;20414;-66
2023/12/26 14:06:53;;;;;;;5.27;4.23;;;11.80;99.90;;;;;;5065991;28;21034;-66
2023/12/26 14:09:56;;;;;;;4.03;3.73;;;11.90;99.90;;;;;;5068953;28;20420;-65
2023/12/26 14:13:00;;;;;;;4.63;3.80;;;11.90;99.90;;;;;;5067226;28;20922;-64
2023/12/26 14:16:04;;;;;;;5.20;4.00;;;11.90;99.90;;;;;;5066586;28;20468;-64
2023/12/26 14:18:48;;;;;;;4.47;4.17;;;11.90;99.90;;;;;;5074936;28;20431;-67
2023/12/26 14:21:14;;;;;;;4.93;3.90;;;11.90;99.90;;;;;;5072208;28;20432;-66
2023/12/26 14:23:40;;;;;;;7.83;6.60;;;11.80;99.90;;;;;;5070418;28;20429;-65
2023/12/26 14:26:05;;;;;;;4.70;4.20;;;11.90;99.90;;;;;;5071052;28;20563;-66
2023/12/26 14:28:31;;;;;;;5.40;4.90;;;11.90;99.90;;;;;;5068947;28;20192;-61
2023/12/26 14:30:57;;;;;;;5.40;3.87;;;11.90;99.90;;;;;;5076447;28;20505;-67
2023/12/26 14:33:22;;;;;;;5.43;4.27;;;11.90;99.90;;;;;;5069247;28;20203;-66
2023/12/26 14:35:50;;;;;;;4.20;3.80;;;12.00;99.90;;;;;;5067824;28;20432;-66
2023/12/26 14:38:16;;;;;;;5.97;3.70;;;12.00;99.90;;;;;;5067797;28;20259;-66
2023/12/26 14:40:43;;;;;;;5.93;3.80;;;12.10;99.90;;;;;;5066201;28;20428;-65
2023/12/26 14:43:09;;;;;;;5.77;3.73;;;12.00;99.90;;;;;;5071673;28;20418;-66
2023/12/26 14:45:35;;;;;;;4.67;4.23;;;12.00;99.90;;;;;;5070363;28;20989;-61
2023/12/26 14:48:00;;;;;;;5.67;4.23;;;12.10;99.90;;;;;;5067710;28;20444;-63
2023/12/26 14:50:26;;;;;;;4.73;4.30;;;12.10;99.90;;;;;;5063084;28;20179;-65
2023/12/26 14:52:52;;;;;;;3.87;3.57;;;12.10;99.90;;;;;;5075021;28;20183;-70
2023/12/26 14:55:17;;;;;;;10.40;4.33;;;12.00;99.90;;;;;;5081431;28;20181;-66
2023/12/26 14:57:44;;;;;;;4.50;4.10;;;12.00;99.90;;;;;;5080555;28;20836;-66
2023/12/26 15:00:10;;;;;;;4.53;4.03;;;12.00;99.90;;;;;;5072365;28;20176;-66
2023/12/26 15:02:36;;;;;;;4.50;4.10;;;12.00;99.90;;;;;;5079858;28;20432;-62
2023/12/26 15:05:02;;;;;;;6.23;3.63;;;12.00;99.90;;;;;;5086335;28;20187;-66
2023/12/26 15:07:27;;;;;;;4.50;4.10;;;12.00;99.90;;;;;;5069358;28;20457;-66
2023/12/26 15:09:53;;;;;;;4.43;3.90;;;11.90;99.90;;;;;;5073973;28;20934;-66
2023/12/26 15:12:19;;;;;;;6.90;4.47;;;11.90;99.90;;;;;;5064499;28;20682;-66
2023/12/26 15:14:45;;;;;;;5.67;5.13;;;11.90;99.90;;;;;;5068203;28;20232;-66
2023/12/26 15:17:12;;;;;;;5.87;4.17;;;11.90;99.90;;;;;;5067137;28;20185;-66
2023/12/26 15:19:37;;;;;;;6.90;3.40;;;11.80;99.90;;;;;;5068369;28;20466;-64
2023/12/26 15:22:03;;;;;;;3.83;3.53;;;11.80;99.90;;;;;;5074125;28;20936;-66
2023/12/26 15:24:29;;;;;;;5.80;3.90;;;11.80;99.90;;;;;;5053057;28;20434;-65
2023/12/26 15:26:55;;;;;;;5.50;3.83;;;11.80;99.90;;;;;;5069799;28;20198;-65
2023/12/26 15:29:21;;;;;;;5.80;4.30;;;11.80;99.90;;;;;;5069354;28;20185;-65
2023/12/26 15:31:47;;;;;;;5.00;3.80;;;11.80;99.90;;;;;;5068087;28;20463;-64
2023/12/26 15:34:13;;;;;;;4.10;3.70;;;11.80;99.90;;;;;;5074062;28;20176;-65
2023/12/26 15:36:41;;;;;;;5.83;5.20;;;11.80;99.90;;;;;;5072516;28;20868;-64
2023/12/26 15:39:09;;;;;;;8.17;4.90;;;11.80;99.90;;;;;;5070989;28;20515;-65
2023/12/26 15:41:34;;;;;;;6.53;3.93;;;11.70;99.90;;;;;;5067766;28;20438;-60
2023/12/26 15:44:01;;;;;;;4.80;4.37;;;11.70;99.90;;;;;;5072880;28;20423;-60
2023/12/26 15:46:28;;;;;;;5.13;4.63;;;11.70;99.90;;;;;;5070489;28;20219;-64